sensor_id;sensor_type;location;lat;lon;timestamp;temperature;humidity
27413;DHT22;14871;52.702;5.230;2024-03-07T00:02:18;11.00;99.90
27413;DHT22;14871;52.702;5.230;2024-03-07T00:04:44;11.10;99.90
27413;DHT22;14871;52.702;5.230;2024-03-07T00:07:10;11.00;99.90
27413;DHT22;14871;52.702;5.230;2024-03-07T00:09:36;10.90;99.90
27413;DHT22;14871;52.702;5.230;2024-03-07T00:12:03;10.90;99.90
27413;DHT22;14871;52.702;5.230;2024-03-07T00:14:32;10.90;99.90
27413;DHT22;14871;52.702;5.230;2024-03-07T00:16:58;10.90;99.90
27413;DHT22;14871;52.702;5.230;2024-03-07T00:19:27;10.90;99.90
27413;DHT22;14871;52.702;5.230;2024-03-07T00:21:56;10.90;99.90
27413;DHT22;14871;52.702;5.230;2024-03-07T00:24:22;10.90;99.90
27413;DHT22;14871;52.702;5.230;2024-03-07T00:26:53;10.90;99.90
27413;DHT22;14871;52.702;5.230;2024-03-07T00:29:19;10.80;99.90
27413;DHT22;14871;52.702;5.230;2024-03-07T00:31:45;10.70;99.90
27413;DHT22;14871;52.702;5.230;2024-03-07T00:34:14;10.60;99.90
27413;DHT22;14871;52.702;5.230;2024-03-07T00:36:42;10.60;99.90
27413;DHT22;14871;52.702;5.230;2024-03-07T00:39:08;10.60;99.90
27413;DHT22;14871;52.702;5.230;2024-03-07T00:41:34;10.70;99.90
27413;DHT22;14871;52.702;5.230;2024-03-07T00:44:00;10.70;99.90
27413;DHT22;14871;52.702;5.230;2024-03-07T00:46:26;10.60;99.90
27413;DHT22;14871;52.702;5.230;2024-03-07T00:48:51;10.60;99.90
27413;DHT22;14871;52.702;5.230;2024-03-07T00:51:17;10.60;99.90
27413;DHT22;14871;52.702;5.230;2024-03-07T00:53:43;10.60;99.90
27413;DHT22;14871;52.702;5.230;2024-03-07T00:56:09;10.60;99.90
27413;DHT22;14871;52.702;5.230;2024-03-07T00:58:34;10.50;99.90
27413;DHT22;14871;52.702;5.230;2024-03-07T01:01:01;10.50;99.90
27413;DHT22;14871;52.702;5.230;2024-03-07T01:03:26;10.50;99.90
27413;DHT22;14871;52.702;5.230;2024-03-07T01:05:52;10.40;99.90
27413;DHT22;14871;52.702;5.230;2024-03-07T01:08:18;10.50;99.90
27413;DHT22;14871;52.702;5.230;2024-03-07T01:10:43;10.50;99.90
27413;DHT22;14871;52.702;5.230;2024-03-07T01:13:09;10.40;99.90
27413;DHT22;14871;52.702;5.230;2024-03-07T01:15:41;10.50;99.90
27413;DHT22;14871;52.702;5.230;2024-03-07T01:18:06;10.40;99.90
27413;DHT22;14871;52.702;5.230;2024-03-07T01:20:32;10.30;99.90
27413;DHT22;14871;52.702;5.230;2024-03-07T01:22:58;10.30;99.90
27413;DHT22;14871;52.702;5.230;2024-03-07T01:25:23;10.30;99.90
27413;DHT22;14871;52.702;5.230;2024-03-07T01:27:49;10.20;99.90
27413;DHT22;14871;52.702;5.230;2024-03-07T01:30:16;10.20;99.90
27413;DHT22;14871;52.702;5.230;2024-03-07T01:32:42;10.20;99.90
27413;DHT22;14871;52.702;5.230;2024-03-07T01:35:08;10.20;99.90
27413;DHT22;14871;52.702;5.230;2024-03-07T01:37:35;10.20;99.90
27413;DHT22;14871;52.702;5.230;2024-03-07T01:40:01;10.20;99.90
27413;DHT22;14871;52.702;5.230;2024-03-07T01:42:27;10.20;99.90
27413;DHT22;14871;52.702;5.230;2024-03-07T01:44:52;10.20;99.90
27413;DHT22;14871;52.702;5.230;2024-03-07T01:47:18;10.20;99.90
27413;DHT22;14871;52.702;5.230;2024-03-07T01:49:44;10.10;99.90
27413;DHT22;14871;52.702;5.230;2024-03-07T01:52:10;10.10;99.90
27413;DHT22;14871;52.702;5.230;2024-03-07T01:54:36;10.20;99.90
27413;DHT22;14871;52.702;5.230;2024-03-07T01:57:04;10.10;99.90
27413;DHT22;14871;52.702;5.230;2024-03-07T01:59:30;10.10;99.90
27413;DHT22;14871;52.702;5.230;2024-03-07T02:01:59;10.20;99.90
27413;DHT22;14871;52.702;5.230;2024-03-07T02:04:27;10.10;99.90
27413;DHT22;14871;52.702;5.230;2024-03-07T02:06:53;10.10;99.90
27413;DHT22;14871;52.702;5.230;2024-03-07T02:09:20;10.00;99.90
27413;DHT22;14871;52.702;5.230;2024-03-07T02:11:49;10.10;99.90
27413;DHT22;14871;52.702;5.230;2024-03-07T02:14:15;10.00;99.90
27413;DHT22;14871;52.702;5.230;2024-03-07T02:16:42;10.00;99.90
27413;DHT22;14871;52.702;5.230;2024-03-07T02:19:08;10.00;99.90
27413;DHT22;14871;52.702;5.230;2024-03-07T02:21:36;10.00;99.90
27413;DHT22;14871;52.702;5.230;2024-03-07T02:24:02;10.00;99.90
27413;DHT22;14871;52.702;5.230;2024-03-07T02:26:27;10.00;99.90
27413;DHT22;14871;52.702;5.230;2024-03-07T02:28:53;10.00;99.90
27413;DHT22;14871;52.702;5.230;2024-03-07T02:31:19;10.00;99.90
27413;DHT22;14871;52.702;5.230;2024-03-07T02:33:45;9.90;99.90
27413;DHT22;14871;52.702;5.230;2024-03-07T02:36:12;9.90;99.90
27413;DHT22;14871;52.702;5.230;2024-03-07T02:38:38;9.90;99.90
27413;DHT22;14871;52.702;5.230;2024-03-07T02:41:04;9.90;99.90
27413;DHT22;14871;52.702;5.230;2024-03-07T02:43:30;9.80;99.90
27413;DHT22;14871;52.702;5.230;2024-03-07T02:45:55;9.80;99.90
27413;DHT22;14871;52.702;5.230;2024-03-07T02:48:22;9.80;99.90
27413;DHT22;14871;52.702;5.230;2024-03-07T02:50:47;9.80;99.90
27413;DHT22;14871;52.702;5.230;2024-03-07T02:53:13;9.70;99.90
27413;DHT22;14871;52.702;5.230;2024-03-07T02:55:38;9.60;99.90
27413;DHT22;14871;52.702;5.230;2024-03-07T02:58:04;9.70;99.90
27413;DHT22;14871;52.702;5.230;2024-03-07T03:00:30;9.60;99.90
27413;DHT22;14871;52.702;5.230;2024-03-07T03:02:56;9.60;99.90
27413;DHT22;14871;52.702;5.230;2024-03-07T03:05:22;9.50;99.90
27413;DHT22;14871;52.702;5.230;2024-03-07T03:07:48;9.50;99.90
27413;DHT22;14871;52.702;5.230;2024-03-07T03:10:24;9.60;99.90
27413;DHT22;14871;52.702;5.230;2024-03-07T03:12:58;9.50;99.90
27413;DHT22;14871;52.702;5.230;2024-03-07T03:15:24;9.50;99.90
27413;DHT22;14871;52.702;5.230;2024-03-07T03:17:50;9.50;99.90
27413;DHT22;14871;52.702;5.230;2024-03-07T03:20:17;9.50;99.90
27413;DHT22;14871;52.702;5.230;2024-03-07T03:22:51;9.60;99.90
27413;DHT22;14871;52.702;5.230;2024-03-07T03:25:18;9.60;99.90
27413;DHT22;14871;52.702;5.230;2024-03-07T03:27:44;9.60;99.90
27413;DHT22;14871;52.702;5.230;2024-03-07T03:30:10;9.60;99.90
27413;DHT22;14871;52.702;5.230;2024-03-07T03:32:39;9.60;99.90
27413;DHT22;14871;52.702;5.230;2024-03-07T03:35:07;9.60;99.90
27413;DHT22;14871;52.702;5.230;2024-03-07T03:37:33;9.60;99.90
27413;DHT22;14871;52.702;5.230;2024-03-07T03:39:58;9.70;99.90
27413;DHT22;14871;52.702;5.230;2024-03-07T03:42:24;9.70;99.90
27413;DHT22;14871;52.702;5.230;2024-03-07T03:44:50;9.70;99.90
27413;DHT22;14871;52.702;5.230;2024-03-07T03:47:16;9.60;99.90
27413;DHT22;14871;52.702;5.230;2024-03-07T03:49:41;9.60;99.90
27413;DHT22;14871;52.702;5.230;2024-03-07T03:52:07;9.70;99.90
27413;DHT22;14871;52.702;5.230;2024-03-07T03:54:33;9.70;99.90
27413;DHT22;14871;52.702;5.230;2024-03-07T03:56:59;9.70;99.90
27413;DHT22;14871;52.702;5.230;2024-03-07T03:59:24;9.70;99.90
27413;DHT22;14871;52.702;5.230;2024-03-07T04:01:50;9.60;99.90
27413;DHT22;14871;52.702;5.230;2024-03-07T04:04:16;9.60;99.90
27413;DHT22;14871;52.702;5.230;2024-03-07T04:06:41;9.70;99.90
27413;DHT22;14871;52.702;5.230;2024-03-07T04:09:07;9.60;99.90
27413;DHT22;14871;52.702;5.230;2024-03-07T04:11:32;9.60;99.90
27413;DHT22;14871;52.702;5.230;2024-03-07T04:13:58;9.60;99.90
27413;DHT22;14871;52.702;5.230;2024-03-07T04:16:24;9.60;99.90
27413;DHT22;14871;52.702;5.230;2024-03-07T04:18:49;9.60;99.90
27413;DHT22;14871;52.702;5.230;2024-03-07T04:21:17;9.70;99.90
27413;DHT22;14871;52.702;5.230;2024-03-07T04:23:42;9.60;99.90
27413;DHT22;14871;52.702;5.230;2024-03-07T04:26:08;9.60;99.90
27413;DHT22;14871;52.702;5.230;2024-03-07T04:28:34;9.60;99.90
27413;DHT22;14871;52.702;5.230;2024-03-07T04:31:00;9.60;99.90
27413;DHT22;14871;52.702;5.230;2024-03-07T04:33:25;9.50;99.90
27413;DHT22;14871;52.702;5.230;2024-03-07T04:35:52;9.50;99.90
27413;DHT22;14871;52.702;5.230;2024-03-07T04:38:18;9.50;99.90
27413;DHT22;14871;52.702;5.230;2024-03-07T04:40:43;9.50;99.90
27413;DHT22;14871;52.702;5.230;2024-03-07T04:43:10;9.40;99.90
27413;DHT22;14871;52.702;5.230;2024-03-07T04:45:37;9.40;99.90
27413;DHT22;14871;52.702;5.230;2024-03-07T04:48:04;9.30;99.90
27413;DHT22;14871;52.702;5.230;2024-03-07T04:50:30;9.30;99.90
27413;DHT22;14871;52.702;5.230;2024-03-07T04:52:56;9.30;99.90
27413;DHT22;14871;52.702;5.230;2024-03-07T04:55:22;9.20;99.90
27413;DHT22;14871;52.702;5.230;2024-03-07T04:57:47;9.10;99.90
27413;DHT22;14871;52.702;5.230;2024-03-07T05:00:14;9.10;99.90
27413;DHT22;14871;52.702;5.230;2024-03-07T05:02:41;9.10;99.90
27413;DHT22;14871;52.702;5.230;2024-03-07T05:05:06;9.10;99.90
27413;DHT22;14871;52.702;5.230;2024-03-07T05:07:33;9.00;99.90
27413;DHT22;14871;52.702;5.230;2024-03-07T05:09:59;8.90;99.90
27413;DHT22;14871;52.702;5.230;2024-03-07T05:12:24;8.90;99.90
27413;DHT22;14871;52.702;5.230;2024-03-07T05:14:50;8.90;99.90
27413;DHT22;14871;52.702;5.230;2024-03-07T05:17:16;8.80;99.90
27413;DHT22;14871;52.702;5.230;2024-03-07T05:19:45;8.90;99.90
27413;DHT22;14871;52.702;5.230;2024-03-07T05:22:10;8.90;99.90
27413;DHT22;14871;52.702;5.230;2024-03-07T05:24:41;8.80;99.90
27413;DHT22;14871;52.702;5.230;2024-03-07T05:27:08;8.90;99.90
27413;DHT22;14871;52.702;5.230;2024-03-07T05:29:37;8.80;99.90
27413;DHT22;14871;52.702;5.230;2024-03-07T05:32:26;8.80;99.90
27413;DHT22;14871;52.702;5.230;2024-03-07T05:34:52;8.70;99.90
27413;DHT22;14871;52.702;5.230;2024-03-07T05:37:21;8.70;99.90
27413;DHT22;14871;52.702;5.230;2024-03-07T05:39:48;8.70;99.90
27413;DHT22;14871;52.702;5.230;2024-03-07T05:42:14;8.70;99.90
27413;DHT22;14871;52.702;5.230;2024-03-07T05:44:43;8.60;99.90
27413;DHT22;14871;52.702;5.230;2024-03-07T05:47:10;8.50;99.90
27413;DHT22;14871;52.702;5.230;2024-03-07T05:49:36;8.50;99.90
27413;DHT22;14871;52.702;5.230;2024-03-07T05:52:05;8.60;99.90
27413;DHT22;14871;52.702;5.230;2024-03-07T05:54:32;8.60;99.90
27413;DHT22;14871;52.702;5.230;2024-03-07T05:56:57;8.50;99.90
27413;DHT22;14871;52.702;5.230;2024-03-07T05:59:23;8.50;99.90
27413;DHT22;14871;52.702;5.230;2024-03-07T06:01:48;8.50;99.90
27413;DHT22;14871;52.702;5.230;2024-03-07T06:04:16;8.50;99.90
27413;DHT22;14871;52.702;5.230;2024-03-07T06:06:42;8.50;99.90
27413;DHT22;14871;52.702;5.230;2024-03-07T06:09:09;8.50;99.90
27413;DHT22;14871;52.702;5.230;2024-03-07T06:11:36;8.40;99.90
27413;DHT22;14871;52.702;5.230;2024-03-07T06:14:05;8.50;99.90
27413;DHT22;14871;52.702;5.230;2024-03-07T06:16:40;8.40;99.90
27413;DHT22;14871;52.702;5.230;2024-03-07T06:19:07;8.40;99.90
27413;DHT22;14871;52.702;5.230;2024-03-07T06:21:34;8.30;99.90
27413;DHT22;14871;52.702;5.230;2024-03-07T06:24:00;8.40;99.90
27413;DHT22;14871;52.702;5.230;2024-03-07T06:26:31;8.40;99.90
27413;DHT22;14871;52.702;5.230;2024-03-07T06:29:12;8.40;99.90
27413;DHT22;14871;52.702;5.230;2024-03-07T06:31:38;8.30;99.90
27413;DHT22;14871;52.702;5.230;2024-03-07T06:34:03;8.30;99.90
27413;DHT22;14871;52.702;5.230;2024-03-07T06:36:29;8.30;99.90
27413;DHT22;14871;52.702;5.230;2024-03-07T06:38:55;8.40;99.90
27413;DHT22;14871;52.702;5.230;2024-03-07T06:41:21;8.40;99.90
27413;DHT22;14871;52.702;5.230;2024-03-07T06:43:47;8.40;99.90
27413;DHT22;14871;52.702;5.230;2024-03-07T06:46:15;8.40;99.90
27413;DHT22;14871;52.702;5.230;2024-03-07T06:48:42;8.40;99.90
27413;DHT22;14871;52.702;5.230;2024-03-07T06:51:08;8.40;99.90
27413;DHT22;14871;52.702;5.230;2024-03-07T06:53:33;8.40;99.90
27413;DHT22;14871;52.702;5.230;2024-03-07T06:56:00;8.30;99.90
27413;DHT22;14871;52.702;5.230;2024-03-07T06:58:26;8.40;99.90
27413;DHT22;14871;52.702;5.230;2024-03-07T07:00:52;8.40;99.90
27413;DHT22;14871;52.702;5.230;2024-03-07T07:03:21;8.40;99.90
27413;DHT22;14871;52.702;5.230;2024-03-07T07:05:48;8.40;99.90
27413;DHT22;14871;52.702;5.230;2024-03-07T07:08:14;8.40;99.90
27413;DHT22;14871;52.702;5.230;2024-03-07T07:10:40;8.40;99.90
27413;DHT22;14871;52.702;5.230;2024-03-07T07:13:06;8.40;99.90
27413;DHT22;14871;52.702;5.230;2024-03-07T07:15:32;8.40;99.90
27413;DHT22;14871;52.702;5.230;2024-03-07T07:17:58;8.60;99.90
27413;DHT22;14871;52.702;5.230;2024-03-07T07:20:24;8.70;99.90
27413;DHT22;14871;52.702;5.230;2024-03-07T07:22:50;8.70;99.90
27413;DHT22;14871;52.702;5.230;2024-03-07T07:25:16;8.80;99.90
27413;DHT22;14871;52.702;5.230;2024-03-07T07:27:47;8.80;99.90
27413;DHT22;14871;52.702;5.230;2024-03-07T07:30:15;8.90;99.90
27413;DHT22;14871;52.702;5.230;2024-03-07T07:32:41;9.00;99.90
27413;DHT22;14871;52.702;5.230;2024-03-07T07:35:09;9.10;99.90
27413;DHT22;14871;52.702;5.230;2024-03-07T07:37:41;9.20;99.90
27413;DHT22;14871;52.702;5.230;2024-03-07T07:40:07;9.30;99.90
27413;DHT22;14871;52.702;5.230;2024-03-07T07:42:35;9.30;99.90
27413;DHT22;14871;52.702;5.230;2024-03-07T07:45:07;9.40;99.90
27413;DHT22;14871;52.702;5.230;2024-03-07T07:47:39;9.50;99.90
27413;DHT22;14871;52.702;5.230;2024-03-07T07:50:12;9.60;99.90
27413;DHT22;14871;52.702;5.230;2024-03-07T07:52:44;9.70;99.90
27413;DHT22;14871;52.702;5.230;2024-03-07T07:55:10;9.70;99.90
27413;DHT22;14871;52.702;5.230;2024-03-07T07:57:51;9.60;99.90
27413;DHT22;14871;52.702;5.230;2024-03-07T08:00:18;9.60;99.90
27413;DHT22;14871;52.702;5.230;2024-03-07T08:02:58;9.60;99.90
27413;DHT22;14871;52.702;5.230;2024-03-07T08:05:29;9.70;99.90
27413;DHT22;14871;52.702;5.230;2024-03-07T08:07:56;9.90;99.90
27413;DHT22;14871;52.702;5.230;2024-03-07T08:10:24;9.90;99.90
27413;DHT22;14871;52.702;5.230;2024-03-07T08:12:51;9.80;99.90
27413;DHT22;14871;52.702;5.230;2024-03-07T08:15:17;9.60;99.90
27413;DHT22;14871;52.702;5.230;2024-03-07T08:17:44;9.70;99.90
27413;DHT22;14871;52.702;5.230;2024-03-07T08:20:14;9.90;99.90
27413;DHT22;14871;52.702;5.230;2024-03-07T08:22:41;10.00;99.90
27413;DHT22;14871;52.702;5.230;2024-03-07T08:25:09;10.10;99.90
27413;DHT22;14871;52.702;5.230;2024-03-07T08:27:38;10.10;99.90
27413;DHT22;14871;52.702;5.230;2024-03-07T08:30:08;10.30;99.90
27413;DHT22;14871;52.702;5.230;2024-03-07T08:32:38;10.40;99.90
27413;DHT22;14871;52.702;5.230;2024-03-07T08:35:04;10.70;99.90
27413;DHT22;14871;52.702;5.230;2024-03-07T08:37:45;10.80;99.90
27413;DHT22;14871;52.702;5.230;2024-03-07T08:40:12;10.80;99.90
27413;DHT22;14871;52.702;5.230;2024-03-07T08:42:45;10.70;99.90
27413;DHT22;14871;52.702;5.230;2024-03-07T08:45:11;10.60;99.90
27413;DHT22;14871;52.702;5.230;2024-03-07T08:47:38;10.60;99.90
27413;DHT22;14871;52.702;5.230;2024-03-07T08:50:04;10.50;99.90
27413;DHT22;14871;52.702;5.230;2024-03-07T08:52:34;10.50;99.90
27413;DHT22;14871;52.702;5.230;2024-03-07T08:55:04;10.50;99.90
27413;DHT22;14871;52.702;5.230;2024-03-07T08:57:30;10.60;99.90
27413;DHT22;14871;52.702;5.230;2024-03-07T08:59:56;10.60;99.90
27413;DHT22;14871;52.702;5.230;2024-03-07T09:02:21;10.50;99.90
27413;DHT22;14871;52.702;5.230;2024-03-07T09:04:47;10.80;99.90
27413;DHT22;14871;52.702;5.230;2024-03-07T09:07:13;10.70;99.90
27413;DHT22;14871;52.702;5.230;2024-03-07T09:09:43;10.90;99.90
27413;DHT22;14871;52.702;5.230;2024-03-07T09:12:10;11.30;99.90
27413;DHT22;14871;52.702;5.230;2024-03-07T09:14:36;11.70;99.90
27413;DHT22;14871;52.702;5.230;2024-03-07T09:17:03;11.90;99.90
27413;DHT22;14871;52.702;5.230;2024-03-07T09:19:30;12.20;99.90
27413;DHT22;14871;52.702;5.230;2024-03-07T09:21:56;12.30;99.90
27413;DHT22;14871;52.702;5.230;2024-03-07T09:24:22;12.60;99.90
27413;DHT22;14871;52.702;5.230;2024-03-07T09:26:51;12.80;99.90
27413;DHT22;14871;52.702;5.230;2024-03-07T09:29:18;13.00;99.90
27413;DHT22;14871;52.702;5.230;2024-03-07T09:31:53;13.20;99.90
27413;DHT22;14871;52.702;5.230;2024-03-07T09:34:23;13.50;99.90
27413;DHT22;14871;52.702;5.230;2024-03-07T09:36:49;13.80;99.90
27413;DHT22;14871;52.702;5.230;2024-03-07T09:39:15;14.20;99.90
27413;DHT22;14871;52.702;5.230;2024-03-07T09:41:42;14.40;99.90
27413;DHT22;14871;52.702;5.230;2024-03-07T09:44:13;14.70;99.90
27413;DHT22;14871;52.702;5.230;2024-03-07T09:46:40;15.20;99.90
27413;DHT22;14871;52.702;5.230;2024-03-07T09:49:07;15.30;99.90
27413;DHT22;14871;52.702;5.230;2024-03-07T09:51:36;15.50;99.90
27413;DHT22;14871;52.702;5.230;2024-03-07T09:54:02;15.80;99.90
27413;DHT22;14871;52.702;5.230;2024-03-07T09:56:30;15.90;99.90
27413;DHT22;14871;52.702;5.230;2024-03-07T09:58:58;16.00;99.90
27413;DHT22;14871;52.702;5.230;2024-03-07T10:01:27;16.20;99.90
27413;DHT22;14871;52.702;5.230;2024-03-07T10:03:58;16.10;99.90
27413;DHT22;14871;52.702;5.230;2024-03-07T10:06:24;16.40;99.90
27413;DHT22;14871;52.702;5.230;2024-03-07T10:08:52;16.80;99.90
27413;DHT22;14871;52.702;5.230;2024-03-07T10:11:18;17.00;99.90
27413;DHT22;14871;52.702;5.230;2024-03-07T10:13:46;17.20;99.90
27413;DHT22;14871;52.702;5.230;2024-03-07T10:16:16;17.50;99.90
27413;DHT22;14871;52.702;5.230;2024-03-07T10:18:44;17.40;99.40
27413;DHT22;14871;52.702;5.230;2024-03-07T10:21:13;17.80;99.60
27413;DHT22;14871;52.702;5.230;2024-03-07T10:23:39;18.00;99.70
27413;DHT22;14871;52.702;5.230;2024-03-07T10:26:06;18.30;98.60
27413;DHT22;14871;52.702;5.230;2024-03-07T10:28:32;18.50;97.50
27413;DHT22;14871;52.702;5.230;2024-03-07T10:30:59;18.00;93.60
27413;DHT22;14871;52.702;5.230;2024-03-07T10:33:28;17.90;95.00
27413;DHT22;14871;52.702;5.230;2024-03-07T10:35:58;18.20;96.00
27413;DHT22;14871;52.702;5.230;2024-03-07T10:38:24;18.40;94.40
27413;DHT22;14871;52.702;5.230;2024-03-07T10:40:54;18.30;93.60
27413;DHT22;14871;52.702;5.230;2024-03-07T10:43:21;18.20;94.40
27413;DHT22;14871;52.702;5.230;2024-03-07T10:45:48;18.30;94.00
27413;DHT22;14871;52.702;5.230;2024-03-07T10:48:18;18.50;94.30
27413;DHT22;14871;52.702;5.230;2024-03-07T10:53:50;19.00;94.50
27413;DHT22;14871;52.702;5.230;2024-03-07T10:56:43;19.20;93.10
27413;DHT22;14871;52.702;5.230;2024-03-07T10:59:19;19.50;92.00
27413;DHT22;14871;52.702;5.230;2024-03-07T11:01:55;19.90;92.60
27413;DHT22;14871;52.702;5.230;2024-03-07T11:04:22;19.90;91.70
27413;DHT22;14871;52.702;5.230;2024-03-07T11:06:49;20.00;90.30
27413;DHT22;14871;52.702;5.230;2024-03-07T11:09:15;20.00;90.90
27413;DHT22;14871;52.702;5.230;2024-03-07T11:11:48;19.80;90.20
27413;DHT22;14871;52.702;5.230;2024-03-07T11:14:14;19.90;90.50
27413;DHT22;14871;52.702;5.230;2024-03-07T11:16:42;19.90;90.70
27413;DHT22;14871;52.702;5.230;2024-03-07T11:19:28;20.00;91.20
27413;DHT22;14871;52.702;5.230;2024-03-07T11:21:55;20.10;90.10
27413;DHT22;14871;52.702;5.230;2024-03-07T11:24:31;20.20;90.50
27413;DHT22;14871;52.702;5.230;2024-03-07T11:27:03;20.40;90.70
27413;DHT22;14871;52.702;5.230;2024-03-07T11:29:50;20.50;89.60
27413;DHT22;14871;52.702;5.230;2024-03-07T11:32:19;20.30;89.50
27413;DHT22;14871;52.702;5.230;2024-03-07T11:34:48;19.80;89.60
27413;DHT22;14871;52.702;5.230;2024-03-07T11:37:45;19.50;90.40
27413;DHT22;14871;52.702;5.230;2024-03-07T11:43:01;18.70;92.10
27413;DHT22;14871;52.702;5.230;2024-03-07T11:45:30;18.30;92.80
27413;DHT22;14871;52.702;5.230;2024-03-07T11:48:04;18.30;93.20
27413;DHT22;14871;52.702;5.230;2024-03-07T11:50:34;18.20;94.40
27413;DHT22;14871;52.702;5.230;2024-03-07T11:53:03;18.40;93.50
27413;DHT22;14871;52.702;5.230;2024-03-07T11:55:39;18.50;93.30
27413;DHT22;14871;52.702;5.230;2024-03-07T11:58:20;18.80;92.50
27413;DHT22;14871;52.702;5.230;2024-03-07T12:00:48;18.80;90.80
27413;DHT22;14871;52.702;5.230;2024-03-07T12:03:19;19.20;90.20
27413;DHT22;14871;52.702;5.230;2024-03-07T12:05:48;19.30;89.80
27413;DHT22;14871;52.702;5.230;2024-03-07T12:08:15;19.60;88.40
27413;DHT22;14871;52.702;5.230;2024-03-07T12:10:42;19.70;86.10
27413;DHT22;14871;52.702;5.230;2024-03-07T12:13:11;19.50;84.70
27413;DHT22;14871;52.702;5.230;2024-03-07T12:15:38;19.60;85.10
27413;DHT22;14871;52.702;5.230;2024-03-07T12:18:04;19.80;85.30
27413;DHT22;14871;52.702;5.230;2024-03-07T12:20:41;20.10;86.50
27413;DHT22;14871;52.702;5.230;2024-03-07T12:23:08;20.40;86.60
27413;DHT22;14871;52.702;5.230;2024-03-07T12:25:38;20.80;84.60
27413;DHT22;14871;52.702;5.230;2024-03-07T12:28:08;20.90;82.60
27413;DHT22;14871;52.702;5.230;2024-03-07T12:33:12;20.80;80.40
27413;DHT22;14871;52.702;5.230;2024-03-07T12:35:49;20.80;82.00
27413;DHT22;14871;52.702;5.230;2024-03-07T12:38:21;21.00;81.50
27413;DHT22;14871;52.702;5.230;2024-03-07T12:41:10;21.40;79.30
27413;DHT22;14871;52.702;5.230;2024-03-07T12:43:40;21.40;77.70
27413;DHT22;14871;52.702;5.230;2024-03-07T12:46:12;21.60;77.80
27413;DHT22;14871;52.702;5.230;2024-03-07T12:48:39;21.50;75.90
27413;DHT22;14871;52.702;5.230;2024-03-07T12:51:05;21.40;77.00
27413;DHT22;14871;52.702;5.230;2024-03-07T12:53:31;21.50;76.50
27413;DHT22;14871;52.702;5.230;2024-03-07T12:55:57;21.40;76.40
27413;DHT22;14871;52.702;5.230;2024-03-07T12:58:23;21.30;76.10
27413;DHT22;14871;52.702;5.230;2024-03-07T13:00:55;21.20;76.70
27413;DHT22;14871;52.702;5.230;2024-03-07T13:03:26;20.80;76.70
27413;DHT22;14871;52.702;5.230;2024-03-07T13:05:58;20.40;79.50
27413;DHT22;14871;52.702;5.230;2024-03-07T13:08:27;20.40;81.30
27413;DHT22;14871;52.702;5.230;2024-03-07T13:10:54;20.70;80.60
27413;DHT22;14871;52.702;5.230;2024-03-07T13:13:21;20.80;80.20
27413;DHT22;14871;52.702;5.230;2024-03-07T13:15:46;20.90;78.30
27413;DHT22;14871;52.702;5.230;2024-03-07T13:18:13;20.80;78.30
27413;DHT22;14871;52.702;5.230;2024-03-07T13:20:39;20.80;77.30
27413;DHT22;14871;52.702;5.230;2024-03-07T13:23:08;20.80;77.80
27413;DHT22;14871;52.702;5.230;2024-03-07T13:25:35;20.90;78.70
27413;DHT22;14871;52.702;5.230;2024-03-07T13:28:11;20.80;78.60
27413;DHT22;14871;52.702;5.230;2024-03-07T13:30:43;20.80;77.20
27413;DHT22;14871;52.702;5.230;2024-03-07T13:33:09;20.40;76.80
27413;DHT22;14871;52.702;5.230;2024-03-07T13:35:39;20.10;77.50
27413;DHT22;14871;52.702;5.230;2024-03-07T13:38:06;19.80;78.20
27413;DHT22;14871;52.702;5.230;2024-03-07T13:40:32;19.30;79.40
27413;DHT22;14871;52.702;5.230;2024-03-07T13:43:01;18.80;82.30
27413;DHT22;14871;52.702;5.230;2024-03-07T13:45:28;18.60;84.20
27413;DHT22;14871;52.702;5.230;2024-03-07T13:47:57;19.10;83.90
27413;DHT22;14871;52.702;5.230;2024-03-07T13:50:26;18.90;81.10
27413;DHT22;14871;52.702;5.230;2024-03-07T13:52:55;18.40;82.40
27413;DHT22;14871;52.702;5.230;2024-03-07T14:16:15;16.50;90.30
27413;DHT22;14871;52.702;5.230;2024-03-07T14:24:46;15.80;92.70
27413;DHT22;14871;52.702;5.230;2024-03-07T14:32:29;16.00;93.40
27413;DHT22;14871;52.702;5.230;2024-03-07T14:35:17;15.90;93.80
27413;DHT22;14871;52.702;5.230;2024-03-07T14:38:00;16.00;93.70
27413;DHT22;14871;52.702;5.230;2024-03-07T14:40:27;15.70;93.90
27413;DHT22;14871;52.702;5.230;2024-03-07T14:42:55;15.50;94.40
27413;DHT22;14871;52.702;5.230;2024-03-07T14:45:27;15.60;94.70
27413;DHT22;14871;52.702;5.230;2024-03-07T14:47:55;15.30;94.60
27413;DHT22;14871;52.702;5.230;2024-03-07T14:50:22;15.30;95.40
27413;DHT22;14871;52.702;5.230;2024-03-07T14:52:50;15.20;96.10
27413;DHT22;14871;52.702;5.230;2024-03-07T14:55:16;15.40;95.80
27413;DHT22;14871;52.702;5.230;2024-03-07T14:57:44;15.40;95.70
27413;DHT22;14871;52.702;5.230;2024-03-07T15:00:11;15.40;96.00
27413;DHT22;14871;52.702;5.230;2024-03-07T15:02:46;15.20;96.20
27413;DHT22;14871;52.702;5.230;2024-03-07T15:05:13;15.10;96.90
27413;DHT22;14871;52.702;5.230;2024-03-07T15:07:39;15.10;97.30
27413;DHT22;14871;52.702;5.230;2024-03-07T15:10:11;15.00;97.70
27413;DHT22;14871;52.702;5.230;2024-03-07T15:12:44;14.90;97.90
27413;DHT22;14871;52.702;5.230;2024-03-07T15:15:14;14.50;98.80
27413;DHT22;14871;52.702;5.230;2024-03-07T15:17:43;14.50;98.90
27413;DHT22;14871;52.702;5.230;2024-03-07T15:20:14;14.40;99.10
27413;DHT22;14871;52.702;5.230;2024-03-07T15:22:59;14.40;99.40
27413;DHT22;14871;52.702;5.230;2024-03-07T15:25:26;14.20;99.90
27413;DHT22;14871;52.702;5.230;2024-03-07T15:27:53;14.30;99.90
27413;DHT22;14871;52.702;5.230;2024-03-07T15:30:26;14.00;99.90
27413;DHT22;14871;52.702;5.230;2024-03-07T15:32:57;14.00;99.90
27413;DHT22;14871;52.702;5.230;2024-03-07T15:35:25;14.00;99.90
27413;DHT22;14871;52.702;5.230;2024-03-07T15:37:52;14.00;99.90
27413;DHT22;14871;52.702;5.230;2024-03-07T15:40:20;14.10;99.90
27413;DHT22;14871;52.702;5.230;2024-03-07T15:42:50;14.10;99.90
27413;DHT22;14871;52.702;5.230;2024-03-07T15:45:23;13.80;99.90
27413;DHT22;14871;52.702;5.230;2024-03-07T15:47:51;13.70;99.90
27413;DHT22;14871;52.702;5.230;2024-03-07T15:50:18;13.50;99.90
27413;DHT22;14871;52.702;5.230;2024-03-07T15:52:48;13.40;99.90
27413;DHT22;14871;52.702;5.230;2024-03-07T15:55:17;13.60;99.90
27413;DHT22;14871;52.702;5.230;2024-03-07T15:57:45;13.50;99.90
27413;DHT22;14871;52.702;5.230;2024-03-07T16:00:13;13.70;99.90
27413;DHT22;14871;52.702;5.230;2024-03-07T16:02:59;13.50;99.90
27413;DHT22;14871;52.702;5.230;2024-03-07T16:05:26;13.20;99.90
27413;DHT22;14871;52.702;5.230;2024-03-07T16:07:54;13.30;99.90
27413;DHT22;14871;52.702;5.230;2024-03-07T16:10:26;13.20;99.90
27413;DHT22;14871;52.702;5.230;2024-03-07T16:12:59;13.20;99.90
27413;DHT22;14871;52.702;5.230;2024-03-07T16:15:26;12.90;99.90
27413;DHT22;14871;52.702;5.230;2024-03-07T16:17:53;13.00;99.90
27413;DHT22;14871;52.702;5.230;2024-03-07T16:20:20;12.90;99.90
27413;DHT22;14871;52.702;5.230;2024-03-07T16:22:46;12.70;99.90
27413;DHT22;14871;52.702;5.230;2024-03-07T16:25:15;12.70;99.90